Time;durP1;ratioP1;P1;durP2;ratioP2;P2;SDS_P1;SDS_P2;PMS_P1;PMS_P2;Temp;Humidity;BMP_temperature;BMP_pressure;BME280_temperature;BME280_humidity;BME280_pressure;Samples;Min_cycle;Max_cycle;Signal;HPM_P1;HPM_P2
2022/09/20 00:01:14;;;;;;;3.25;2.53;;;13.90;62.80;;;;;;5079150;28;20045;-72
2022/09/20 00:03:42;;;;;;;2.90;2.40;;;13.90;63.00;;;;;;5083561;28;20036;-75
2022/09/20 00:06:14;;;;;;;3.40;2.50;;;13.90;63.10;;;;;;5096253;28;20031;-76
2022/09/20 00:08:40;;;;;;;2.42;2.20;;;13.80;63.10;;;;;;5102599;28;20031;-74
2022/09/20 00:11:09;;;;;;;2.70;2.30;;;13.90;63.40;;;;;;5115276;28;20024;-77
2022/09/20 00:13:36;;;;;;;2.90;2.10;;;13.90;63.40;;;;;;5116812;28;20036;-74
2022/09/20 00:16:10;;;;;;;3.70;2.50;;;13.80;63.40;;;;;;5116410;28;20024;-72
2022/09/20 00:18:36;;;;;;;3.85;2.50;;;13.80;63.60;;;;;;5116993;28;20020;-72
2022/09/20 00:21:03;;;;;;;3.72;2.50;;;13.70;63.60;;;;;;5098480;28;20068;-74
2022/09/20 00:23:29;;;;;;;2.53;2.33;;;13.80;63.60;;;;;;5109274;28;20032;-74
2022/09/20 00:26:00;;;;;;;3.03;2.53;;;13.70;63.70;;;;;;5079493;28;20462;-75
2022/09/20 00:28:28;;;;;;;5.00;2.78;;;13.70;63.70;;;;;;5077679;28;20039;-73
2022/09/20 00:30:55;;;;;;;4.05;2.50;;;13.70;63.80;;;;;;5096638;28;20351;-75
2022/09/20 00:33:22;;;;;;;3.00;2.55;;;13.70;63.80;;;;;;5078110;28;20123;-73
2022/09/20 00:35:48;;;;;;;2.92;2.42;;;13.70;63.80;;;;;;5089834;28;20032;-69
2022/09/20 00:38:14;;;;;;;83.10;68.97;;;13.60;63.90;;;;;;5116244;28;20047;-72
2022/09/20 00:40:41;;;;;;;22.20;17.65;;;13.50;64.00;;;;;;5087228;28;20486;-73
2022/09/20 00:43:13;;;;;;;13.48;10.90;;;13.50;64.20;;;;;;5096242;28;20074;-72
2022/09/20 00:45:40;;;;;;;11.43;9.85;;;13.50;64.40;;;;;;5096174;28;20063;-72
2022/09/20 00:48:13;;;;;;;9.45;6.93;;;13.40;64.30;;;;;;5078091;28;20060;-75
2022/09/20 00:50:43;;;;;;;7.70;6.00;;;13.30;64.50;;;;;;5096210;28;20056;-79
2022/09/20 00:53:25;;;;;;;6.35;4.82;;;13.30;64.60;;;;;;5096096;28;20112;-77
2022/09/20 00:56:05;;;;;;;5.88;4.30;;;13.30;64.80;;;;;;5088380;28;20024;-74
2022/09/20 00:58:37;;;;;;;6.78;3.67;;;13.20;65.00;;;;;;5096601;28;20035;-75
2022/09/20 01:01:03;;;;;;;5.60;3.88;;;13.20;64.90;;;;;;5115754;28;20044;-74
2022/09/20 01:03:31;;;;;;;6.70;3.40;;;13.20;65.70;;;;;;5116134;28;20480;-71
2022/09/20 01:06:01;;;;;;;4.53;3.30;;;13.10;65.20;;;;;;5091293;28;20023;-78
2022/09/20 01:08:26;;;;;;;5.68;3.33;;;13.10;65.30;;;;;;5097310;28;20381;-74
2022/09/20 01:10:52;;;;;;;3.35;2.95;;;13.00;65.50;;;;;;5097992;28;20019;-72
2022/09/20 01:13:18;;;;;;;5.13;3.22;;;13.00;65.60;;;;;;5094454;28;20032;-77
2022/09/20 01:15:46;;;;;;;3.72;2.80;;;13.00;65.70;;;;;;5100726;28;20482;-75
2022/09/20 01:18:12;;;;;;;3.25;2.90;;;12.90;65.80;;;;;;5097243;28;20442;-79
2022/09/20 01:20:41;;;;;;;3.38;2.67;;;12.90;65.90;;;;;;5097332;28;20461;-80
2022/09/20 01:23:09;;;;;;;3.47;2.70;;;12.90;65.80;;;;;;5076198;28;20028;-76
2022/09/20 01:25:53;;;;;;;5.22;2.70;;;12.90;66.00;;;;;;5094720;28;20470;-83
2022/09/20 01:28:20;;;;;;;3.00;2.67;;;12.80;65.90;;;;;;5083892;28;20036;-78
2022/09/20 01:30:55;;;;;;;3.22;2.58;;;12.80;65.90;;;;;;5058579;28;20032;-82
2022/09/20 01:33:51;;;;;;;3.10;2.40;;;12.80;66.10;;;;;;5077712;28;20116;-82
2022/09/20 01:36:23;;;;;;;;;;;12.80;66.20;;;;;;5105030;28;20024;-76
2022/09/20 01:39:07;;;;;;;4.10;2.60;;;12.70;66.80;;;;;;5097854;28;19908;-84
2022/09/20 01:41:37;;;;;;;4.22;2.80;;;12.70;66.00;;;;;;5098841;28;20031;-80
2022/09/20 01:44:16;;;;;;;35.83;25.20;;;12.70;66.00;;;;;;5111457;28;20123;-74
2022/09/20 01:46:43;;;;;;;12.50;9.20;;;12.70;66.20;;;;;;5109854;28;20031;-82
2022/09/20 01:49:50;;;;;;;8.52;6.38;;;12.60;66.30;;;;;;5108349;28;20462;-82
2022/09/20 01:52:37;;;;;;;6.75;4.85;;;12.60;67.10;;;;;;5118702;28;20054;-81
2022/09/20 01:55:25;;;;;;;6.70;4.45;;;12.60;66.80;;;;;;5104580;28;20032;-80
2022/09/20 01:58:13;;;;;;;5.03;3.75;;;12.50;66.30;;;;;;5101486;28;20107;-87
2022/09/20 02:00:45;;;;;;;4.38;3.50;;;12.50;66.50;;;;;;5105719;28;20091;-89
2022/09/20 02:03:32;;;;;;;3.78;3.10;;;12.50;66.50;;;;;;5115475;28;20118;-77
2022/09/20 02:05:57;;;;;;;3.60;2.80;;;12.50;66.60;;;;;;5103250;28;20420;-75
2022/09/20 02:09:06;;;;;;;3.83;2.85;;;12.50;66.60;;;;;;5105306;28;20023;-84
2022/09/20 02:12:09;;;;;;;5.32;3.55;;;12.60;66.80;;;;;;5100597;28;20158;-82
2022/09/20 02:15:04;;;;;;;3.65;3.15;;;12.60;66.90;;;;;;5116007;28;20134;-77
2022/09/20 02:17:45;;;;;;;4.25;3.30;;;12.60;66.70;;;;;;5068406;28;20474;-80
2022/09/20 02:20:35;;;;;;;4.50;2.95;;;12.60;66.60;;;;;;5095392;28;20076;-68
2022/09/20 02:23:24;;;;;;;8.73;6.15;;;12.60;66.70;;;;;;5093229;28;20085;-74
2022/09/20 02:26:09;;;;;;;17.85;12.65;;;12.60;66.50;;;;;;5095267;28;20381;-82
2022/09/20 02:28:50;;;;;;;10.98;7.57;;;12.70;66.70;;;;;;5098912;28;20024;-83
2022/09/20 02:31:27;;;;;;;10.43;6.80;;;12.60;66.60;;;;;;5111040;28;20027;-75
2022/09/20 02:34:17;;;;;;;8.48;5.80;;;12.60;66.70;;;;;;5115068;28;20035;-71
2022/09/20 02:37:08;;;;;;;27.27;20.00;;;12.60;66.90;;;;;;5111766;28;20037;-73
2022/09/20 02:40:04;;;;;;;83.70;55.30;;;12.70;66.90;;;;;;5113119;28;20020;-73
2022/09/20 02:42:38;;;;;;;29.60;21.92;;;12.70;67.30;;;;;;5094201;28;20048;-79
2022/09/20 02:45:18;;;;;;;19.13;13.27;;;12.70;66.90;;;;;;5094486;28;20056;-70
2022/09/20 02:47:45;;;;;;;14.25;10.77;;;12.70;67.00;;;;;;5087318;28;20023;-75
2022/09/20 02:50:37;;;;;;;12.88;8.52;;;12.70;66.90;;;;;;5096378;28;20037;-73
2022/09/20 02:53:25;;;;;;;10.20;6.78;;;12.60;67.00;;;;;;5114744;28;20035;-71
2022/09/20 02:56:04;;;;;;;8.43;6.05;;;12.60;67.10;;;;;;5096027;28;20032;-71
2022/09/20 02:58:48;;;;;;;8.00;5.15;;;12.60;67.40;;;;;;5105246;28;20027;-71
2022/09/20 03:01:33;;;;;;;9.40;5.67;;;12.60;67.50;;;;;;5095978;28;20406;-71
2022/09/20 03:04:40;;;;;;;7.22;4.90;;;12.50;67.50;;;;;;5118503;28;20027;-72
2022/09/20 03:07:08;;;;;;;6.65;4.70;;;12.60;67.70;;;;;;5093417;28;20097;-71
2022/09/20 03:09:36;;;;;;;5.03;3.97;;;12.50;67.50;;;;;;5090206;28;20024;-79
2022/09/20 03:12:14;;;;;;;32.90;25.98;;;12.50;67.60;;;;;;5118292;28;20099;-75
2022/09/20 03:15:12;;;;;;;34.35;24.58;;;12.50;67.90;;;;;;5092628;28;20020;-77
2022/09/20 03:17:55;;;;;;;15.63;11.25;;;12.50;68.40;;;;;;5071790;28;20039;-75
2022/09/20 03:20:39;;;;;;;10.55;8.23;;;12.50;68.00;;;;;;5085171;28;20036;-71
2022/09/20 03:23:12;;;;;;;9.52;6.47;;;12.50;68.00;;;;;;5100713;28;20051;-72
2022/09/20 03:25:53;;;;;;;7.50;5.68;;;12.60;68.00;;;;;;5097734;28;20474;-78
2022/09/20 03:29:00;;;;;;;6.90;5.32;;;12.60;68.00;;;;;;5076761;28;20047;-80
2022/09/20 03:32:19;;;;;;;7.75;4.63;;;12.60;68.40;;;;;;5080573;28;20039;-75
2022/09/20 03:34:55;;;;;;;6.82;4.35;;;12.70;68.80;;;;;;5094729;28;20071;-77
2022/09/20 03:38:00;;;;;;;37.63;29.33;;;12.70;68.00;;;;;;5098604;28;20072;-77
2022/09/20 03:40:57;;;;;;;22.87;17.93;;;12.70;68.60;;;;;;5099731;28;20477;-78
2022/09/20 03:43:42;;;;;;;14.00;10.23;;;12.70;68.80;;;;;;5110143;28;20051;-81
2022/09/20 03:46:08;;;;;;;;;;;12.70;69.20;;;;;;5102181;28;20115;-80
2022/09/20 03:49:10;;;;;;;12.27;8.35;;;12.70;70.00;;;;;;5099829;28;19992;-77
2022/09/20 03:51:57;;;;;;;8.88;6.57;;;12.70;68.70;;;;;;5099481;28;20023;-76
2022/09/20 03:54:44;;;;;;;11.25;6.22;;;12.70;68.70;;;;;;5117582;28;20066;-76
2022/09/20 03:57:28;;;;;;;8.88;5.80;;;12.70;68.90;;;;;;5106210;28;20032;-79
2022/09/20 04:00:01;;;;;;;7.73;5.33;;;12.70;68.80;;;;;;5096187;28;20484;-75
2022/09/20 04:02:52;;;;;;;81.28;64.25;;;12.70;68.60;;;;;;5094898;28;20275;-75
2022/09/20 04:05:34;;;;;;;27.63;18.73;;;12.80;68.80;;;;;;5095852;28;20024;-75
2022/09/20 04:08:29;;;;;;;20.70;12.93;;;12.90;69.30;;;;;;5098062;28;20035;-78
2022/09/20 04:11:15;;;;;;;15.85;10.52;;;13.00;69.30;;;;;;5098893;28;20024;-76
2022/09/20 04:13:55;;;;;;;13.38;9.05;;;13.10;69.40;;;;;;5097399;28;20039;-77
2022/09/20 04:16:54;;;;;;;11.95;8.18;;;13.20;68.60;;;;;;5117373;28;20028;-78
2022/09/20 04:19:54;;;;;;;13.32;10.00;;;13.30;68.60;;;;;;5103564;28;20044;-76
2022/09/20 04:22:21;;;;;;;13.88;8.48;;;13.40;68.60;;;;;;5116957;28;20031;-78
2022/09/20 04:25:11;;;;;;;14.27;10.05;;;13.40;68.40;;;;;;5098196;28;20027;-77
2022/09/20 04:27:40;;;;;;;9.30;6.55;;;13.50;68.60;;;;;;5097485;28;20028;-81
2022/09/20 04:30:19;;;;;;;9.00;6.28;;;13.50;68.40;;;;;;5117123;28;20055;-87
2022/09/20 04:33:17;;;;;;;8.27;5.63;;;13.50;68.40;;;;;;5117540;28;20433;-77
2022/09/20 04:36:27;;;;;;;7.18;5.18;;;13.60;68.50;;;;;;5113171;28;20027;-78
2022/09/20 04:39:30;;;;;;;6.68;4.20;;;13.60;68.60;;;;;;5093967;28;20036;-77
2022/09/20 04:42:06;;;;;;;6.35;4.40;;;13.70;68.80;;;;;;5095399;28;20032;-76
2022/09/20 04:45:09;;;;;;;5.80;3.60;;;13.70;68.60;;;;;;5095196;28;20027;-78
2022/09/20 04:47:53;;;;;;;4.75;3.30;;;13.80;68.90;;;;;;5091639;28;20466;-75
2022/09/20 04:50:56;;;;;;;4.93;3.58;;;13.90;68.60;;;;;;5094495;28;20080;-73
2022/09/20 04:53:43;;;;;;;4.60;3.22;;;14.00;68.80;;;;;;5097412;28;20123;-73
2022/09/20 04:56:15;;;;;;;4.70;3.13;;;14.10;68.60;;;;;;5116131;28;20023;-73
2022/09/20 04:58:56;;;;;;;6.55;5.18;;;14.20;68.40;;;;;;5100978;28;20031;-79
2022/09/20 05:02:02;;;;;;;13.88;9.80;;;14.20;68.40;;;;;;5094064;28;20378;-77
2022/09/20 05:04:55;;;;;;;8.20;5.97;;;14.30;68.50;;;;;;5071944;28;20445;-74
2022/09/20 05:07:21;;;;;;;6.82;4.75;;;14.30;68.50;;;;;;5096818;28;20046;-74
2022/09/20 05:10:08;;;;;;;6.28;3.92;;;14.40;68.20;;;;;;5114110;28;20023;-76
2022/09/20 05:12:56;;;;;;;4.65;3.42;;;14.40;68.40;;;;;;5092846;28;20031;-79
2022/09/20 05:15:42;;;;;;;7.85;3.63;;;14.40;68.20;;;;;;5080122;28;20038;-75
2022/09/20 05:18:33;;;;;;;26.83;21.33;;;14.40;68.60;;;;;;5075915;28;20032;-80
2022/09/20 05:21:36;;;;;;;20.73;16.40;;;14.40;68.40;;;;;;5096184;28;20599;-85
2022/09/20 05:24:26;;;;;;;11.82;9.40;;;14.40;68.80;;;;;;5097409;28;20060;-77
2022/09/20 05:27:21;;;;;;;8.57;7.05;;;14.40;68.80;;;;;;5106872;28;20028;-72
2022/09/20 05:30:11;;;;;;;7.95;6.07;;;14.40;68.70;;;;;;5058055;28;20051;-78
2022/09/20 05:32:45;;;;;;;6.30;4.82;;;14.40;68.90;;;;;;5056456;28;20040;-75
2022/09/20 05:35:35;;;;;;;6.23;4.47;;;14.40;68.70;;;;;;5082692;28;20535;-78
2022/09/20 05:38:26;;;;;;;5.68;3.72;;;14.40;68.90;;;;;;5090220;28;20042;-75
2022/09/20 05:41:23;;;;;;;12.57;8.70;;;14.40;68.80;;;;;;5094743;28;20028;-77
2022/09/20 05:44:05;;;;;;;22.35;15.60;;;14.50;68.80;;;;;;5109999;28;20122;-77
2022/09/20 05:46:45;;;;;;;14.98;10.20;;;14.50;68.90;;;;;;5109467;28;20042;-82
2022/09/20 05:49:48;;;;;;;14.90;9.65;;;14.50;68.90;;;;;;5115742;28;20160;-79
2022/09/20 05:52:38;;;;;;;54.47;45.15;;;14.60;69.20;;;;;;5097926;28;20044;-75
2022/09/20 05:55:15;;;;;;;29.77;22.77;;;14.60;68.80;;;;;;5115017;28;20031;-76
2022/09/20 05:58:25;;;;;;;23.10;17.17;;;14.70;68.80;;;;;;5089710;28;20136;-75
2022/09/20 06:01:17;;;;;;;16.73;12.57;;;14.80;68.90;;;;;;5070473;28;20039;-73
2022/09/20 06:03:54;;;;;;;15.95;10.80;;;14.90;68.70;;;;;;5074339;28;20082;-75
2022/09/20 06:06:41;;;;;;;12.50;8.55;;;14.90;68.40;;;;;;5104541;28;20541;-74
2022/09/20 06:09:18;;;;;;;35.25;27.63;;;15.00;68.60;;;;;;5079441;28;20027;-73
2022/09/20 06:12:15;;;;;;;55.97;43.55;;;15.00;68.40;;;;;;5076493;28;20174;-73
2022/09/20 06:14:50;;;;;;;31.00;22.77;;;15.10;68.70;;;;;;5073758;28;20044;-71
2022/09/20 06:17:39;;;;;;;22.15;16.45;;;15.10;68.40;;;;;;5075541;28;20027;-72
2022/09/20 06:20:17;;;;;;;19.90;13.05;;;15.20;68.50;;;;;;5094727;28;20024;-74
2022/09/20 06:22:48;;;;;;;13.82;10.57;;;15.20;68.40;;;;;;5078970;28;20506;-78
2022/09/20 06:25:41;;;;;;;53.72;44.40;;;15.30;68.50;;;;;;5076210;28;20075;-70
2022/09/20 06:28:18;;;;;;;31.13;25.23;;;15.40;68.70;;;;;;5108990;28;20035;-75
2022/09/20 06:30:51;;;;;;;26.17;20.15;;;15.40;68.20;;;;;;5091574;28;20469;-68
2022/09/20 06:33:24;;;;;;;20.92;15.10;;;15.50;68.10;;;;;;5075785;28;20055;-69
2022/09/20 06:42:13;;;;;;;10.23;7.28;;;15.60;67.80;;;;;;5094712;28;20039;-72
2022/09/20 06:44:41;;;;;;;9.63;6.50;;;15.50;67.60;;;;;;5076024;28;20032;-67
2022/09/20 06:47:12;;;;;;;7.60;5.60;;;15.60;67.70;;;;;;5092406;28;20031;-73
2022/09/20 06:49:40;;;;;;;9.02;5.80;;;15.60;67.70;;;;;;5055604;28;20489;-70
2022/09/20 06:52:07;;;;;;;8.23;5.43;;;15.60;67.70;;;;;;5072855;28;20385;-68
2022/09/20 06:54:33;;;;;;;60.10;45.38;;;15.70;68.20;;;;;;5093568;28;20043;-69
2022/09/20 06:57:02;;;;;;;124.28;90.28;;;15.70;68.40;;;;;;5075740;28;20474;-73
2022/09/20 06:59:28;;;;;;;64.97;50.60;;;15.80;68.40;;;;;;5084323;28;20115;-71
2022/09/20 07:01:54;;;;;;;43.15;34.83;;;15.80;69.10;;;;;;5077808;28;20131;-71
2022/09/20 07:04:21;;;;;;;28.35;22.83;;;15.90;68.20;;;;;;5107614;28;20105;-67
2022/09/20 07:06:47;;;;;;;24.65;18.83;;;15.90;67.90;;;;;;5107571;28;20032;-69
2022/09/20 07:09:13;;;;;;;19.10;14.88;;;15.90;67.70;;;;;;5083083;28;20080;-68
2022/09/20 07:11:38;;;;;;;14.68;11.68;;;15.90;67.60;;;;;;5075557;28;20028;-71
2022/09/20 07:14:06;;;;;;;11.60;9.18;;;15.90;67.60;;;;;;5093740;28;20105;-68
2022/09/20 07:16:35;;;;;;;9.65;7.65;;;15.90;67.40;;;;;;5075403;28;20028;-68
2022/09/20 07:19:01;;;;;;;9.18;6.05;;;15.90;67.40;;;;;;5092301;28;20077;-68
2022/09/20 07:21:26;;;;;;;8.30;5.90;;;15.90;67.10;;;;;;5093598;28;20028;-69
2022/09/20 07:23:52;;;;;;;6.55;5.22;;;15.90;67.10;;;;;;5075723;28;20124;-68
2022/09/20 07:26:22;;;;;;;8.38;4.93;;;15.80;67.00;;;;;;5075498;28;20031;-70
2022/09/20 07:28:48;;;;;;;5.90;4.50;;;15.80;67.00;;;;;;5093243;28;20029;-69
2022/09/20 07:31:16;;;;;;;5.38;4.32;;;15.80;67.00;;;;;;5075480;28;20028;-69
2022/09/20 07:33:42;;;;;;;6.43;4.47;;;15.80;67.00;;;;;;5075082;28;20134;-69
2022/09/20 07:36:11;;;;;;;5.40;4.05;;;15.80;67.20;;;;;;5093261;28;20118;-68
2022/09/20 07:38:37;;;;;;;5.43;4.05;;;15.80;67.20;;;;;;5093720;28;20052;-70
2022/09/20 07:41:03;;;;;;;6.22;4.20;;;15.80;67.30;;;;;;5093618;28;20059;-70
2022/09/20 07:43:30;;;;;;;5.95;4.22;;;15.80;67.50;;;;;;5084860;28;20071;-70
2022/09/20 07:45:57;;;;;;;6.63;3.60;;;15.70;67.40;;;;;;5092136;28;20028;-69
2022/09/20 07:48:32;;;;;;;5.55;3.70;;;15.70;67.50;;;;;;5094405;28;20028;-69
2022/09/20 07:51:01;;;;;;;4.63;3.58;;;15.70;67.60;;;;;;5096414;28;20052;-69
2022/09/20 07:53:28;;;;;;;5.38;3.70;;;15.70;67.70;;;;;;5096764;28;20519;-68
2022/09/20 07:55:59;;;;;;;4.63;3.53;;;15.70;67.80;;;;;;5095714;28;20078;-69
2022/09/20 07:58:25;;;;;;;5.32;3.80;;;15.70;68.00;;;;;;5097079;28;20069;-69
2022/09/20 08:00:57;;;;;;;5.22;3.70;;;15.70;68.00;;;;;;5095641;28;20032;-68
2022/09/20 08:03:24;;;;;;;4.80;3.53;;;15.70;68.00;;;;;;5095355;28;20028;-68
2022/09/20 08:05:51;;;;;;;5.18;3.50;;;15.70;68.00;;;;;;5096700;28;20047;-69
2022/09/20 08:08:17;;;;;;;4.15;3.05;;;15.70;68.00;;;;;;5095475;28;20024;-68
2022/09/20 08:10:46;;;;;;;4.47;3.17;;;15.80;68.00;;;;;;5095547;28;20039;-69
2022/09/20 08:13:13;;;;;;;6.25;3.42;;;15.80;68.10;;;;;;5096548;28;20024;-68
2022/09/20 08:15:39;;;;;;;3.42;2.67;;;15.80;68.10;;;;;;5095140;28;20417;-68
2022/09/20 08:18:07;;;;;;;4.47;3.03;;;15.80;68.10;;;;;;5097074;28;20038;-69
2022/09/20 08:20:36;;;;;;;4.40;3.10;;;15.90;68.10;;;;;;5095509;28;20469;-68
2022/09/20 08:23:02;;;;;;;3.60;2.92;;;15.90;68.20;;;;;;5096484;28;20070;-69
2022/09/20 08:25:28;;;;;;;3.20;2.88;;;15.90;68.20;;;;;;5095130;28;20085;-71
2022/09/20 08:27:54;;;;;;;2.50;2.30;;;15.90;68.10;;;;;;5095214;28;20032;-69
2022/09/20 08:30:20;;;;;;;4.03;2.97;;;16.00;68.10;;;;;;5095121;28;20024;-69
2022/09/20 08:32:46;;;;;;;3.40;2.60;;;16.00;68.10;;;;;;5096157;28;20031;-68
2022/09/20 08:35:13;;;;;;;4.03;2.72;;;16.00;68.10;;;;;;5096323;28;20028;-69
2022/09/20 08:37:40;;;;;;;3.00;2.40;;;16.00;68.00;;;;;;5096024;28;20048;-69
2022/09/20 08:40:06;;;;;;;3.00;2.33;;;16.00;68.00;;;;;;5096697;28;20476;-68
2022/09/20 08:42:35;;;;;;;2.67;2.25;;;16.00;68.00;;;;;;5094712;28;20087;-70
2022/09/20 08:45:05;;;;;;;2.60;2.40;;;16.00;68.10;;;;;;5094682;28;20424;-69
2022/09/20 08:47:34;;;;;;;2.88;2.50;;;16.00;68.10;;;;;;5096176;28;20035;-68
2022/09/20 08:50:06;;;;;;;2.33;2.13;;;16.00;68.20;;;;;;5094964;28;20031;-70
2022/09/20 08:52:36;;;;;;;3.47;2.88;;;16.00;68.20;;;;;;5094771;28;20473;-69
2022/09/20 08:55:12;;;;;;;3.10;2.60;;;16.00;68.30;;;;;;5096001;28;20097;-69
2022/09/20 08:57:38;;;;;;;3.63;2.63;;;16.00;68.30;;;;;;5096052;28;20103;-69
2022/09/20 09:00:17;;;;;;;3.45;2.53;;;15.90;68.40;;;;;;5093756;28;20111;-68
2022/09/20 09:02:42;;;;;;;3.72;2.63;;;16.00;68.60;;;;;;5094693;28;20077;-70
2022/09/20 09:05:31;;;;;;;4.45;3.05;;;15.90;68.40;;;;;;5094534;28;20108;-69
2022/09/20 09:08:03;;;;;;;3.10;2.80;;;15.90;68.70;;;;;;5094390;28;20469;-68
2022/09/20 09:10:38;;;;;;;4.22;2.92;;;15.90;68.60;;;;;;5094450;28;20478;-69
2022/09/20 09:13:05;;;;;;;4.50;3.03;;;15.80;68.70;;;;;;5095882;28;20378;-68
2022/09/20 09:15:34;;;;;;;3.45;2.70;;;15.80;68.70;;;;;;5095374;28;20054;-70
2022/09/20 09:18:00;;;;;;;4.03;2.85;;;15.80;68.80;;;;;;5095312;28;20043;-70
2022/09/20 09:20:26;;;;;;;3.97;2.90;;;15.80;68.90;;;;;;5094133;28;20118;-69
2022/09/20 09:23:05;;;;;;;4.43;2.83;;;15.80;69.00;;;;;;5095352;28;20032;-69
2022/09/20 09:25:36;;;;;;;3.53;2.72;;;15.80;69.00;;;;;;5095457;28;20381;-69
2022/09/20 09:28:06;;;;;;;3.42;2.47;;;15.90;68.80;;;;;;5095005;28;20474;-70
2022/09/20 09:30:39;;;;;;;3.83;2.78;;;15.90;68.80;;;;;;5093638;28;20123;-70
2022/09/20 09:33:27;;;;;;;7.00;4.72;;;16.00;69.00;;;;;;5095661;28;20112;-69
2022/09/20 09:36:15;;;;;;;5.53;3.70;;;16.00;69.40;;;;;;5095561;28;20109;-70
2022/09/20 09:38:46;;;;;;;6.03;3.97;;;16.00;69.10;;;;;;5093984;28;20032;-70
2022/09/20 09:41:25;;;;;;;4.93;3.45;;;16.10;69.00;;;;;;5094727;28;20080;-68
2022/09/20 09:44:09;;;;;;;4.22;3.10;;;16.10;69.00;;;;;;5094017;28;20517;-69
2022/09/20 09:46:38;;;;;;;5.82;3.67;;;16.20;69.00;;;;;;5095078;28;20032;-70
2022/09/20 09:49:17;;;;;;;4.97;3.35;;;16.30;68.80;;;;;;5094895;28;20525;-69
2022/09/20 09:52:14;;;;;;;4.63;3.00;;;16.40;68.70;;;;;;5093840;28;20394;-69
2022/09/20 09:54:53;;;;;;;4.53;3.25;;;16.60;68.80;;;;;;5095016;28;20059;-68
2022/09/20 09:57:30;;;;;;;6.57;3.90;;;16.70;68.50;;;;;;5094748;28;20053;-69
2022/09/20 10:00:12;;;;;;;6.45;3.88;;;16.90;68.30;;;;;;5093077;28;20135;-69
2022/09/20 10:03:13;;;;;;;7.05;4.30;;;17.10;68.20;;;;;;5093259;28;20028;-69
2022/09/20 10:06:12;;;;;;;5.32;3.00;;;17.30;68.20;;;;;;5093984;28;20086;-71
2022/09/20 10:08:38;;;;;;;3.65;2.78;;;17.50;67.80;;;;;;5094702;28;20079;-68
2022/09/20 10:11:10;;;;;;;5.57;2.92;;;17.70;67.40;;;;;;5093713;28;20415;-69
2022/09/20 10:14:06;;;;;;;5.15;2.90;;;17.80;67.20;;;;;;5093051;28;20032;-69
2022/09/20 10:17:01;;;;;;;3.85;2.70;;;17.90;67.00;;;;;;5093257;28;20057;-70
2022/09/20 10:19:51;;;;;;;3.88;2.60;;;18.00;66.70;;;;;;5022887;28;20037;-68
2022/09/20 10:22:27;;;;;;;3.42;2.40;;;18.10;66.40;;;;;;5110247;28;20024;-69
2022/09/20 10:25:13;;;;;;;2.42;2.22;;;18.10;66.20;;;;;;5092895;28;20346;-68
2022/09/20 10:28:07;;;;;;;2.70;2.30;;;18.10;65.90;;;;;;5093358;28;20035;-69
2022/09/20 10:31:09;;;;;;;2.70;2.50;;;18.10;66.00;;;;;;5110290;28;20016;-69
2022/09/20 10:34:21;;;;;;;3.08;2.20;;;18.00;66.00;;;;;;5085706;28;20072;-69
2022/09/20 10:36:57;;;;;;;2.03;1.77;;;17.90;65.80;;;;;;5092908;28;20039;-69
2022/09/20 10:39:38;;;;;;;1.83;1.65;;;17.90;65.70;;;;;;5092822;28;20034;-68
2022/09/20 10:46:04;;;;;;;2.47;1.95;;;17.70;65.70;;;;;;5094052;28;20031;-69
2022/09/20 10:48:51;;;;;;;2.40;2.00;;;17.60;66.00;;;;;;5093488;28;20089;-70
2022/09/20 10:51:19;;;;;;;3.20;1.80;;;17.60;66.20;;;;;;5093912;28;20099;-70
2022/09/20 10:54:12;;;;;;;1.98;1.60;;;17.60;66.30;;;;;;5093678;28;20032;-69
2022/09/20 10:56:49;;;;;;;1.90;1.70;;;17.60;66.30;;;;;;5093572;28;20076;-69
2022/09/20 10:59:26;;;;;;;2.03;1.50;;;17.70;66.20;;;;;;5059693;28;20028;-69
2022/09/20 11:02:07;;;;;;;2.35;1.52;;;17.80;66.20;;;;;;5093914;28;20068;-70
2022/09/20 11:05:13;;;;;;;2.72;1.73;;;17.80;65.90;;;;;;5093469;28;20466;-69
2022/09/20 11:07:45;;;;;;;1.98;1.77;;;17.90;65.90;;;;;;4995197;28;20392;-69
2022/09/20 11:10:38;;;;;;;1.95;1.65;;;17.80;65.80;;;;;;5061698;28;20032;-69
2022/09/20 11:13:25;;;;;;;2.13;1.90;;;17.80;65.80;;;;;;5068749;28;20043;-70
2022/09/20 11:15:59;;;;;;;1.55;1.45;;;17.90;65.90;;;;;;5092303;28;20024;-68
2022/09/20 11:18:43;;;;;;;1.90;1.70;;;17.80;65.80;;;;;;5075576;28;20035;-70
2022/09/20 11:21:17;;;;;;;;;;;17.90;65.80;;;;;;5093698;28;20378;-70
2022/09/20 11:23:55;;;;;;;1.58;1.48;;;17.80;65.70;;;;;;5095791;28;19912;-69
2022/09/20 11:26:37;;;;;;;1.25;1.17;;;17.80;65.70;;;;;;5079322;28;20119;-70
2022/09/20 11:29:17;;;;;;;1.67;1.58;;;17.80;65.80;;;;;;5079164;28;20020;-69
2022/09/20 11:31:47;;;;;;;2.17;1.60;;;17.80;65.80;;;;;;5097514;28;20031;-68
2022/09/20 11:34:24;;;;;;;1.75;1.40;;;17.80;65.70;;;;;;5079183;28;20032;-69
2022/09/20 11:37:00;;;;;;;2.03;1.60;;;17.80;65.70;;;;;;5079340;28;20039;-68
2022/09/20 11:39:45;;;;;;;1.85;1.60;;;17.70;65.80;;;;;;5097306;28;20062;-69
2022/09/20 11:42:14;;;;;;;;;;;17.60;65.90;;;;;;5097751;28;20054;-68
2022/09/20 11:44:41;;;;;;;1.80;1.65;;;17.50;66.00;;;;;;5079465;28;19904;-69
2022/09/20 11:47:13;;;;;;;1.70;1.60;;;17.50;65.90;;;;;;5097075;28;20024;-69
2022/09/20 11:50:07;;;;;;;2.80;1.60;;;17.40;66.00;;;;;;5097289;28;20031;-69
2022/09/20 11:52:38;;;;;;;2.25;1.73;;;17.40;66.10;;;;;;5095843;28;20043;-69
2022/09/20 11:55:27;;;;;;;1.60;1.48;;;17.30;66.20;;;;;;5096096;28;20051;-69
2022/09/20 11:58:10;;;;;;;2.17;1.63;;;17.30;66.20;;;;;;5078796;28;20078;-70
2022/09/20 12:00:40;;;;;;;2.03;1.83;;;17.20;66.40;;;;;;5097092;28;20100;-70
2022/09/20 12:03:24;;;;;;;1.77;1.67;;;17.30;66.50;;;;;;5096942;28;20027;-69
2022/09/20 12:06:01;;;;;;;3.45;1.70;;;17.20;66.50;;;;;;5097068;28;20095;-68
2022/09/20 12:08:35;;;;;;;1.80;1.55;;;17.20;66.50;;;;;;5097072;28;20028;-69
2022/09/20 12:11:13;;;;;;;2.22;1.65;;;17.10;66.60;;;;;;5078511;28;20035;-70
2022/09/20 12:13:41;;;;;;;2.13;1.50;;;17.10;66.60;;;;;;5096616;28;20111;-70
2022/09/20 12:16:26;;;;;;;1.80;1.70;;;17.10;66.60;;;;;;5096817;28;20032;-69
2022/09/20 12:18:52;;;;;;;1.63;1.50;;;17.00;66.70;;;;;;5077408;28;20024;-68
2022/09/20 12:21:20;;;;;;;2.20;1.88;;;17.00;66.90;;;;;;5095280;28;20024;-70
2022/09/20 12:24:00;;;;;;;2.38;1.90;;;17.00;67.10;;;;;;5077969;28;20390;-69
2022/09/20 12:26:26;;;;;;;2.85;2.22;;;17.00;67.30;;;;;;5097232;28;20115;-69
2022/09/20 12:28:54;;;;;;;3.72;2.50;;;16.90;67.30;;;;;;5095239;28;20111;-69
2022/09/20 12:31:30;;;;;;;4.60;2.90;;;17.00;67.40;;;;;;5096496;28;20024;-69
2022/09/20 12:34:12;;;;;;;4.70;3.00;;;16.90;67.50;;;;;;5096037;28;20039;-69
2022/09/20 12:36:43;;;;;;;5.40;2.95;;;16.90;67.70;;;;;;5094630;28;20028;-69
2022/09/20 12:39:11;;;;;;;3.90;2.80;;;16.90;67.80;;;;;;5078482;28;20050;-68
2022/09/20 12:42:01;;;;;;;5.30;3.00;;;16.80;67.80;;;;;;5095049;28;20030;-69
2022/09/20 12:44:32;;;;;;;5.57;2.90;;;16.80;67.90;;;;;;5095950;28;20040;-68
2022/09/20 12:47:04;;;;;;;5.50;3.10;;;16.70;68.00;;;;;;5096381;28;20030;-69
2022/09/20 12:55:32;;;;;;;2.72;2.25;;;16.60;68.40;;;;;;5096133;28;20074;-69
2022/09/20 12:58:13;;;;;;;3.28;2.28;;;16.50;68.50;;;;;;5095251;28;20558;-69
2022/09/20 13:00:58;;;;;;;3.60;2.40;;;16.50;68.70;;;;;;5095987;28;20081;-69
2022/09/20 13:03:34;;;;;;;2.70;2.20;;;16.40;68.80;;;;;;5096080;28;20032;-68
2022/09/20 13:06:05;;;;;;;3.42;2.40;;;16.30;69.00;;;;;;5077672;28;20027;-69
2022/09/20 13:08:38;;;;;;;3.63;2.40;;;16.30;69.20;;;;;;5095551;28;20024;-68
2022/09/20 13:11:08;;;;;;;3.47;2.60;;;16.20;69.30;;;;;;5095750;28;20031;-69
2022/09/20 13:14:05;;;;;;;6.57;3.58;;;16.20;69.40;;;;;;5093978;28;20055;-69
2022/09/20 13:16:46;;;;;;;6.97;5.70;;;16.20;70.00;;;;;;5094179;28;20024;-69
2022/09/20 13:19:28;;;;;;;15.05;13.55;;;16.10;69.80;;;;;;5094279;28;20035;-70
2022/09/20 13:22:19;;;;;;;10.27;7.93;;;16.10;70.00;;;;;;5077083;28;20035;-69
2022/09/20 13:24:47;;;;;;;7.95;6.68;;;16.00;70.10;;;;;;5077325;28;20496;-70
2022/09/20 13:27:27;;;;;;;7.30;5.18;;;16.00;70.30;;;;;;5077023;28;20036;-71
2022/09/20 13:29:53;;;;;;;7.63;4.82;;;15.90;70.40;;;;;;5095392;28;20024;-70
2022/09/20 13:32:26;;;;;;;6.55;4.68;;;15.90;70.70;;;;;;5094906;28;20450;-69
2022/09/20 13:35:12;;;;;;;5.85;3.78;;;15.90;70.90;;;;;;5094927;28;20106;-69
2022/09/20 13:37:44;;;;;;;5.15;3.38;;;15.80;71.20;;;;;;5095157;28;20032;-69
2022/09/20 13:40:20;;;;;;;4.40;2.90;;;15.80;71.20;;;;;;5076901;28;20026;-69
2022/09/20 13:42:48;;;;;;;3.60;2.40;;;15.90;71.40;;;;;;5094811;28;20409;-70
2022/09/20 13:45:14;;;;;;;3.03;2.35;;;16.00;71.10;;;;;;5094837;28;20031;-69
2022/09/20 13:47:46;;;;;;;3.45;2.40;;;16.20;71.10;;;;;;5094521;28;20055;-69
2022/09/20 13:50:22;;;;;;;3.80;2.17;;;16.60;70.70;;;;;;5094860;28;20028;-70
2022/09/20 13:53:00;;;;;;;3.13;1.70;;;16.80;69.70;;;;;;5059931;28;20119;-67
2022/09/20 13:55:34;;;;;;;2.13;1.80;;;17.00;68.90;;;;;;5094926;28;20393;-70